Time;durP1;ratioP1;P1;durP2;ratioP2;P2;SDS_P1;SDS_P2;PMS_P1;PMS_P2;Temp;Humidity;BMP_temperature;BMP_pressure;BME280_temperature;BME280_humidity;BME280_pressure;Samples;Min_cycle;Max_cycle;Signal;HPM_P1;HPM_P2
2022/01/24 00:00:33;;;;;;;1.17;1.15;;;5.40;99.90;;;;;;5120437;27;20036;-76
2022/01/24 00:02:58;;;;;;;0.63;0.63;;;5.40;99.90;;;;;;5138540;27;20042;-76
2022/01/24 00:05:24;;;;;;;0.60;0.60;;;5.40;99.90;;;;;;5138485;27;20126;-76
2022/01/24 00:07:50;;;;;;;0.60;0.60;;;5.40;99.90;;;;;;5138916;27;20395;-76
2022/01/24 00:10:19;;;;;;;0.95;0.95;;;5.40;99.90;;;;;;5138603;27;20043;-76
2022/01/24 00:16:14;;;;;;;0.52;0.52;;;5.40;99.90;;;;;;5074525;28;20048;-76
2022/01/24 00:26:55;;;;;;;0.60;0.60;;;5.40;99.90;;;;;;5119827;27;20047;-75
2022/01/24 00:29:23;;;;;;;0.60;0.60;;;5.30;99.90;;;;;;5138068;27;20039;-76
2022/01/24 00:31:49;;;;;;;3.70;1.95;;;5.30;99.90;;;;;;5138005;27;20433;-76
2022/01/24 00:34:15;;;;;;;0.95;0.95;;;5.30;99.90;;;;;;5137970;27;20122;-76
2022/01/24 00:36:42;;;;;;;0.60;0.60;;;5.30;99.90;;;;;;5137941;27;20043;-76
2022/01/24 00:39:08;;;;;;;1.30;0.98;;;5.30;99.90;;;;;;5102362;27;20475;-76
2022/01/24 00:47:01;;;;;;;1.58;1.48;;;5.30;99.90;;;;;;5137811;27;20047;-76
2022/01/24 00:54:56;;;;;;;0.50;0.50;;;5.30;99.90;;;;;;5137818;27;20051;-76
2022/01/24 00:57:22;;;;;;;0.60;0.60;;;5.30;99.90;;;;;;5119494;27;20178;-76
2022/01/24 00:59:48;;;;;;;1.45;1.35;;;5.20;99.90;;;;;;5118829;27;20118;-76
2022/01/24 01:02:15;;;;;;;0.75;0.75;;;5.20;99.90;;;;;;5137454;27;20478;-76
2022/01/24 01:07:51;;;;;;;0.70;0.70;;;5.20;99.90;;;;;;5107730;27;20083;-76
2022/01/24 01:18:29;;;;;;;1.08;1.08;;;5.20;99.90;;;;;;5137157;27;20054;-76
2022/01/24 01:23:28;;;;;;;0.93;0.77;;;5.20;99.90;;;;;;5136979;27;20057;-76
2022/01/24 01:25:54;;;;;;;0.60;0.60;;;5.10;99.90;;;;;;5137029;27;20553;-76
2022/01/24 01:28:22;;;;;;;1.05;0.70;;;5.10;99.90;;;;;;5118695;27;20050;-76
2022/01/24 01:30:51;;;;;;;0.50;0.50;;;5.10;99.90;;;;;;5136936;27;20043;-76
2022/01/24 01:33:30;;;;;;;0.60;0.60;;;5.10;99.90;;;;;;5119041;27;20454;-75
2022/01/24 01:55:10;;;;;;;0.50;0.50;;;5.10;99.90;;;;;;5136391;27;20043;-76
2022/01/24 01:57:22;;;;;;;0.60;0.60;;;5.20;99.90;;;;;;5117909;27;20498;-75
2022/01/24 01:59:48;;;;;;;0.60;0.60;;;6.40;99.90;;;;;;5118185;27;20529;-76
2022/01/24 02:02:15;;;;;;;1.00;0.75;;;5.10;99.90;;;;;;5136250;27;20467;-75
2022/01/24 02:04:41;;;;;;;0.50;0.50;;;5.10;99.90;;;;;;5136134;27;20054;-76
2022/01/24 02:07:11;;;;;;;0.50;0.50;;;5.10;99.90;;;;;;5136130;27;20391;-76
2022/01/24 02:09:40;;;;;;;0.50;0.50;;;5.10;99.90;;;;;;5136139;27;20095;-76
2022/01/24 02:12:06;;;;;;;0.60;0.60;;;5.50;99.90;;;;;;5117737;27;20130;-76
2022/01/24 02:14:36;;;;;;;0.55;0.55;;;5.10;99.90;;;;;;5135965;27;20065;-75
2022/01/24 02:17:09;;;;;;;0.80;0.80;;;5.10;99.90;;;;;;5136062;27;20043;-76
2022/01/24 02:20:04;;;;;;;0.50;0.50;;;5.10;99.90;;;;;;5135892;27;20042;-76
2022/01/24 02:22:44;;;;;;;0.85;0.85;;;5.10;99.90;;;;;;5121968;27;20047;-76
2022/01/24 02:25:23;;;;;;;0.50;0.50;;;5.10;99.90;;;;;;5117684;27;20420;-76
2022/01/24 02:27:54;;;;;;;0.50;0.50;;;5.10;99.90;;;;;;5117534;27;20043;-76
2022/01/24 02:33:04;;;;;;;0.55;0.55;;;5.10;99.90;;;;;;5117989;27;20055;-76
2022/01/24 02:35:30;;;;;;;0.50;0.50;;;5.10;99.90;;;;;;5135661;27;20043;-76
2022/01/24 02:38:00;;;;;;;0.50;0.50;;;5.10;99.90;;;;;;5117238;27;20108;-76
2022/01/24 02:40:26;;;;;;;0.50;0.50;;;5.10;99.90;;;;;;5135036;27;20875;-76
2022/01/24 02:48:24;;;;;;;0.50;0.50;;;5.10;99.90;;;;;;5135237;27;20055;-76
2022/01/24 02:51:20;;;;;;;0.70;0.70;;;5.10;99.90;;;;;;5135376;27;20074;-76
2022/01/24 02:53:46;;;;;;;0.50;0.50;;;5.10;99.90;;;;;;5117616;27;20050;-75
2022/01/24 02:56:12;;;;;;;0.60;0.60;;;5.10;99.90;;;;;;5116919;27;20047;-76
2022/01/24 02:58:37;;;;;;;0.60;0.60;;;5.10;99.90;;;;;;5135287;27;20049;-76
2022/01/24 03:01:07;;;;;;;2.70;1.30;;;5.10;99.90;;;;;;5116815;27;20039;-75
2022/01/24 03:03:34;;;;;;;0.50;0.50;;;5.00;99.90;;;;;;5135352;27;20502;-76
2022/01/24 03:06:00;;;;;;;0.60;0.60;;;5.00;99.90;;;;;;5135034;27;20129;-76
2022/01/24 03:08:25;;;;;;;0.50;0.50;;;5.00;99.90;;;;;;5117423;27;20082;-76
2022/01/24 03:10:52;;;;;;;1.70;1.60;;;5.10;99.90;;;;;;5134976;27;20049;-75
2022/01/24 03:13:32;;;;;;;;;;;5.10;99.90;;;;;;5135319;27;20051;-75
2022/01/24 03:16:00;;;;;;;0.60;0.60;;;5.00;99.90;;;;;;5134842;27;19919;-75
2022/01/24 03:18:26;;;;;;;0.60;0.60;;;5.00;99.90;;;;;;5116728;27;20388;-76
2022/01/24 03:20:52;;;;;;;0.50;0.50;;;5.10;99.90;;;;;;5116392;28;20035;-76
2022/01/24 03:23:20;;;;;;;0.70;0.70;;;5.10;99.90;;;;;;5134803;27;20387;-76
2022/01/24 03:25:46;;;;;;;0.60;0.60;;;5.10;99.90;;;;;;5134884;27;20095;-75
2022/01/24 03:28:12;;;;;;;0.60;0.60;;;5.10;99.90;;;;;;5134737;27;20082;-76
2022/01/24 03:30:39;;;;;;;0.55;0.55;;;5.10;99.90;;;;;;5116264;28;20319;-76
2022/01/24 03:33:06;;;;;;;0.95;0.90;;;5.00;99.90;;;;;;5134630;28;20100;-76
2022/01/24 03:35:33;;;;;;;0.82;0.82;;;5.10;99.90;;;;;;5116295;28;20050;-76
2022/01/24 03:37:59;;;;;;;0.60;0.60;;;5.00;99.90;;;;;;5116485;28;20043;-76
2022/01/24 03:40:24;;;;;;;1.67;1.58;;;5.00;99.90;;;;;;5134637;28;20375;-76
2022/01/24 03:42:50;;;;;;;0.60;0.60;;;5.00;99.90;;;;;;5134556;28;20122;-76
2022/01/24 03:45:23;;;;;;;0.60;0.60;;;5.10;99.90;;;;;;5135079;28;20058;-76
2022/01/24 03:50:34;;;;;;;0.80;0.60;;;5.00;99.90;;;;;;5101754;28;20085;-75
2022/01/24 03:52:59;;;;;;;12.15;2.25;;;5.10;99.90;;;;;;5116359;28;20077;-75
2022/01/24 03:55:25;;;;;;;7.18;3.47;;;5.10;99.90;;;;;;5116467;28;20043;-75
2022/01/24 03:57:51;;;;;;;0.70;0.70;;;5.10;99.90;;;;;;5134527;28;20556;-75
2022/01/24 04:00:17;;;;;;;0.50;0.50;;;5.10;99.90;;;;;;5099229;28;20043;-75
2022/01/24 04:02:42;;;;;;;0.50;0.50;;;5.10;99.90;;;;;;5099401;28;20035;-75
2022/01/24 04:05:09;;;;;;;1.50;1.40;;;5.10;99.90;;;;;;5134670;28;20047;-75
2022/01/24 04:07:34;;;;;;;0.70;0.70;;;5.10;99.90;;;;;;5134178;28;20043;-75
2022/01/24 04:10:05;;;;;;;0.95;0.90;;;5.10;99.90;;;;;;5116330;28;20070;-75
2022/01/24 04:12:32;;;;;;;0.60;0.60;;;5.10;99.90;;;;;;5116091;28;20039;-75
2022/01/24 04:17:45;;;;;;;1.05;1.00;;;5.10;99.90;;;;;;5119102;28;20047;-75
2022/01/24 04:22:59;;;;;;;4.78;3.33;;;5.10;99.90;;;;;;5134359;28;20055;-75
2022/01/24 04:25:25;;;;;;;2.70;1.67;;;5.10;99.90;;;;;;5116189;28;20532;-75
2022/01/24 04:27:55;;;;;;;0.60;0.60;;;5.10;99.90;;;;;;5134207;28;20039;-75
2022/01/24 04:30:22;;;;;;;0.55;0.55;;;5.10;99.90;;;;;;5134263;28;20043;-75
2022/01/24 04:32:48;;;;;;;0.70;0.70;;;5.00;99.90;;;;;;5134367;28;20436;-75
2022/01/24 04:35:13;;;;;;;1.05;1.05;;;5.10;99.90;;;;;;5136691;27;20092;-75
2022/01/24 04:37:39;;;;;;;0.70;0.70;;;5.10;99.90;;;;;;5120100;27;20047;-75
2022/01/24 04:40:06;;;;;;;0.50;0.50;;;5.10;99.90;;;;;;5137914;27;20064;-75
2022/01/24 04:42:43;;;;;;;;;;;5.10;99.90;;;;;;5138188;27;20138;-75
2022/01/24 04:45:34;;;;;;;0.60;0.60;;;5.10;99.90;;;;;;5137852;27;19919;-75
2022/01/24 04:51:08;;;;;;;0.50;0.50;;;5.10;99.90;;;;;;5138148;27;20043;-75
2022/01/24 04:56:06;;;;;;;0.60;0.60;;;5.10;99.90;;;;;;5137602;27;20479;-76
2022/01/24 04:58:32;;;;;;;0.60;0.60;;;5.10;99.90;;;;;;5138228;27;20061;-76
2022/01/24 05:00:57;;;;;;;0.60;0.60;;;5.10;99.90;;;;;;5137428;27;20035;-75
2022/01/24 05:03:23;;;;;;;0.50;0.50;;;5.10;99.90;;;;;;5137536;27;20387;-75
2022/01/24 05:05:50;;;;;;;0.70;0.70;;;5.10;99.90;;;;;;5137199;27;20039;-75
2022/01/24 05:08:16;;;;;;;;;;;5.20;99.90;;;;;;5119732;27;20086;-75
2022/01/24 05:11:08;;;;;;;0.50;0.50;;;5.50;99.90;;;;;;5137221;27;19927;-75
2022/01/24 05:24:06;;;;;;;0.60;0.60;;;5.10;99.90;;;;;;5137314;27;20043;-73
2022/01/24 05:26:31;;;;;;;0.50;0.50;;;5.10;99.90;;;;;;5136652;27;20043;-75
2022/01/24 05:28:57;;;;;;;1.60;1.50;;;5.10;99.90;;;;;;5118608;27;20045;-76
2022/01/24 05:31:23;;;;;;;0.50;0.50;;;5.10;99.90;;;;;;5137011;27;20089;-75
2022/01/24 05:33:49;;;;;;;0.50;0.50;;;5.10;99.90;;;;;;5134894;27;20046;-75
2022/01/24 05:36:15;;;;;;;0.60;0.60;;;5.00;99.90;;;;;;5135227;27;20062;-75
2022/01/24 05:38:40;;;;;;;1.40;1.30;;;5.00;99.90;;;;;;5135814;27;20483;-75
2022/01/24 05:41:06;;;;;;;0.60;0.60;;;5.00;99.90;;;;;;5135911;27;20046;-75
2022/01/24 05:43:32;;;;;;;0.52;0.52;;;5.00;99.90;;;;;;5135795;27;20043;-75
2022/01/24 05:45:57;;;;;;;0.60;0.60;;;5.00;99.90;;;;;;5134850;27;20424;-75
2022/01/24 05:48:23;;;;;;;0.60;0.60;;;5.00;99.90;;;;;;5135917;27;20051;-75
2022/01/24 05:50:48;;;;;;;0.68;0.68;;;5.00;99.90;;;;;;5136948;27;20035;-75
2022/01/24 05:53:14;;;;;;;0.50;0.50;;;5.00;99.90;;;;;;5136487;27;20046;-75
2022/01/24 05:55:40;;;;;;;0.93;0.93;;;5.00;99.90;;;;;;5136466;27;20055;-75
2022/01/24 05:58:05;;;;;;;0.60;0.60;;;5.00;99.90;;;;;;5136445;27;20055;-75
2022/01/24 06:00:31;;;;;;;0.60;0.60;;;5.00;99.90;;;;;;5136542;27;20075;-75
2022/01/24 06:02:57;;;;;;;1.00;1.00;;;5.00;99.90;;;;;;5136486;27;20100;-75
2022/01/24 06:05:23;;;;;;;0.77;0.77;;;5.00;99.90;;;;;;5136185;27;20394;-75
2022/01/24 06:07:49;;;;;;;0.77;0.77;;;4.90;99.90;;;;;;5136241;27;20035;-75
2022/01/24 06:10:15;;;;;;;0.70;0.70;;;5.00;99.90;;;;;;5136235;27;20118;-75
2022/01/24 06:12:40;;;;;;;0.60;0.60;;;5.00;99.90;;;;;;5136194;27;20513;-75
2022/01/24 06:15:06;;;;;;;0.80;0.70;;;4.90;99.90;;;;;;5117765;27;20087;-75
2022/01/24 06:17:32;;;;;;;0.82;0.82;;;5.00;99.90;;;;;;5135974;27;20043;-75
2022/01/24 06:19:58;;;;;;;0.50;0.50;;;4.90;99.90;;;;;;5117462;27;20043;-75
2022/01/24 06:22:23;;;;;;;0.50;0.50;;;5.00;99.90;;;;;;5117723;27;20039;-75
2022/01/24 06:24:49;;;;;;;1.15;1.10;;;5.00;99.90;;;;;;5135919;27;20084;-75
2022/01/24 06:27:14;;;;;;;0.60;0.60;;;4.90;99.90;;;;;;5117372;27;20047;-75
2022/01/24 06:29:40;;;;;;;1.40;1.15;;;4.90;99.90;;;;;;5135729;27;20050;-75
2022/01/24 06:32:06;;;;;;;0.88;0.88;;;4.90;99.90;;;;;;5117675;27;20103;-75
2022/01/24 06:34:31;;;;;;;0.70;0.70;;;4.90;99.90;;;;;;5135641;27;20057;-75
2022/01/24 06:36:57;;;;;;;1.13;1.02;;;4.90;99.90;;;;;;5136067;27;20035;-75
2022/01/24 06:39:23;;;;;;;1.35;1.25;;;4.80;99.90;;;;;;5135581;27;20126;-75
2022/01/24 06:42:05;;;;;;;0.75;0.75;;;4.80;99.90;;;;;;5135474;27;20492;-75
2022/01/24 06:44:31;;;;;;;0.70;0.70;;;4.90;99.90;;;;;;5135550;27;20051;-75
2022/01/24 06:46:57;;;;;;;1.23;1.13;;;4.90;99.90;;;;;;5135323;27;20039;-75
2022/01/24 06:49:22;;;;;;;0.82;0.82;;;4.90;99.90;;;;;;5136076;27;20062;-75
2022/01/24 06:51:48;;;;;;;1.00;1.00;;;4.90;99.90;;;;;;5135271;27;20039;-75
2022/01/24 06:54:13;;;;;;;0.50;0.50;;;4.90;99.90;;;;;;5116896;27;20105;-75
2022/01/24 06:56:39;;;;;;;1.88;1.77;;;4.90;99.90;;;;;;5134591;27;20376;-75
2022/01/24 06:59:06;;;;;;;0.80;0.80;;;4.90;99.90;;;;;;5135159;27;20051;-75
2022/01/24 07:01:31;;;;;;;;;;;4.90;99.90;;;;;;5135390;27;20058;-75
2022/01/24 07:03:57;;;;;;;0.60;0.60;;;4.90;99.90;;;;;;5135060;27;19920;-76
2022/01/24 07:06:23;;;;;;;0.60;0.60;;;4.90;99.90;;;;;;5116760;27;20053;-75
2022/01/24 07:08:48;;;;;;;0.60;0.60;;;4.90;99.90;;;;;;5135052;27;20453;-75
2022/01/24 07:11:14;;;;;;;0.60;0.60;;;4.90;99.90;;;;;;5134968;27;20398;-75
2022/01/24 07:13:40;;;;;;;0.60;0.60;;;4.90;99.90;;;;;;5134872;27;20031;-75
2022/01/24 07:16:07;;;;;;;2.90;2.58;;;4.90;99.90;;;;;;5134832;27;20097;-75
2022/01/24 07:21:01;;;;;;;1.73;1.60;;;4.90;99.90;;;;;;5135144;27;20047;-75
2022/01/24 07:23:27;;;;;;;1.02;0.93;;;4.90;99.90;;;;;;5134823;27;20112;-75
2022/01/24 07:25:53;;;;;;;0.65;0.65;;;4.90;99.90;;;;;;5134887;27;20467;-75
2022/01/24 07:28:19;;;;;;;0.68;0.68;;;4.90;99.90;;;;;;5134804;27;20074;-76
2022/01/24 07:30:45;;;;;;;0.80;0.80;;;4.90;99.90;;;;;;5134765;27;20509;-76
2022/01/24 07:33:14;;;;;;;0.67;0.67;;;4.90;99.90;;;;;;5135166;27;20298;-75
2022/01/24 07:35:40;;;;;;;0.60;0.60;;;4.90;99.90;;;;;;5134554;27;20395;-75
2022/01/24 07:38:06;;;;;;;0.60;0.60;;;4.90;99.90;;;;;;5116140;28;20035;-75
2022/01/24 07:40:39;;;;;;;0.60;0.60;;;4.90;99.90;;;;;;5134465;28;20035;-75
2022/01/24 07:43:12;;;;;;;0.82;0.82;;;4.90;99.90;;;;;;5133928;28;20048;-78
2022/01/24 07:45:39;;;;;;;0.50;0.50;;;4.90;99.90;;;;;;5115306;28;20039;-75
2022/01/24 07:48:06;;;;;;;0.60;0.60;;;4.90;99.90;;;;;;5116209;27;20047;-76
2022/01/24 07:50:31;;;;;;;0.70;0.70;;;4.90;99.90;;;;;;5133466;28;20043;-76
2022/01/24 07:52:59;;;;;;;0.60;0.60;;;4.90;99.90;;;;;;5134112;28;20054;-76
2022/01/24 07:55:25;;;;;;;0.50;0.50;;;4.90;99.90;;;;;;5133623;28;20186;-76
2022/01/24 07:57:51;;;;;;;0.75;0.73;;;5.00;99.90;;;;;;5134483;28;20047;-75
2022/01/24 08:00:16;;;;;;;0.50;0.50;;;5.00;99.90;;;;;;5134813;28;20354;-75
2022/01/24 08:02:42;;;;;;;0.60;0.60;;;5.00;99.90;;;;;;5116419;28;20127;-80
2022/01/24 08:05:11;;;;;;;0.60;0.60;;;5.00;99.90;;;;;;5134989;28;20066;-77
2022/01/24 08:07:38;;;;;;;0.60;0.60;;;5.00;99.90;;;;;;5134418;28;20038;-77
2022/01/24 08:10:06;;;;;;;0.73;0.73;;;5.00;99.90;;;;;;5136842;27;20043;-76
2022/01/24 08:12:32;;;;;;;2.05;0.88;;;5.00;99.90;;;;;;5119975;27;20491;-76
2022/01/24 08:15:00;;;;;;;1.02;1.00;;;5.00;99.90;;;;;;5138088;27;20058;-75
2022/01/24 08:17:26;;;;;;;0.85;0.85;;;5.00;99.90;;;;;;5138218;27;20089;-74
2022/01/24 08:19:51;;;;;;;0.50;0.50;;;5.00;99.90;;;;;;5138281;27;20067;-75
2022/01/24 08:22:18;;;;;;;0.60;0.60;;;5.00;99.90;;;;;;5138192;27;20043;-76
2022/01/24 08:24:44;;;;;;;1.65;1.33;;;5.00;99.90;;;;;;5138208;27;20537;-76
2022/01/24 08:27:10;;;;;;;0.80;0.80;;;5.00;99.90;;;;;;5137984;27;20047;-74
2022/01/24 08:29:36;;;;;;;0.95;0.95;;;5.00;99.90;;;;;;5138519;27;20141;-76
2022/01/24 08:32:01;;;;;;;2.95;2.25;;;5.00;99.90;;;;;;5135327;27;20039;-76
2022/01/24 08:34:27;;;;;;;1.23;1.20;;;5.00;99.90;;;;;;5137227;27;20092;-76
2022/01/24 08:36:52;;;;;;;0.60;0.60;;;5.10;99.90;;;;;;5136800;27;20035;-75
2022/01/24 08:39:18;;;;;;;0.82;0.82;;;5.10;99.90;;;;;;5135682;27;20380;-74
2022/01/24 08:47:03;;;;;;;0.70;0.70;;;5.10;99.90;;;;;;5137778;27;20047;-75
2022/01/24 08:49:28;;;;;;;30.15;5.82;;;5.10;99.90;;;;;;5119088;27;20376;-74
2022/01/24 08:51:54;;;;;;;1.75;1.65;;;5.10;99.90;;;;;;5137633;27;20043;-76
2022/01/24 08:54:20;;;;;;;1.55;1.45;;;;;;;;;;5119458;27;20047;-76
2022/01/24 08:56:47;;;;;;;0.80;0.80;;;5.20;99.90;;;;;;5119209;27;20050;-76
2022/01/24 08:59:13;;;;;;;0.80;0.80;;;5.20;99.90;;;;;;5137940;27;20058;-75
2022/01/24 09:01:38;;;;;;;1.75;1.65;;;5.20;99.90;;;;;;5137724;27;20413;-76
2022/01/24 09:04:04;;;;;;;0.68;0.68;;;5.20;99.90;;;;;;5119342;27;20062;-76
2022/01/24 09:06:30;;;;;;;0.68;0.63;;;5.20;99.90;;;;;;5137323;27;20043;-76
2022/01/24 09:09:01;;;;;;;1.90;1.50;;;5.20;99.90;;;;;;5119038;27;20122;-77
2022/01/24 09:11:29;;;;;;;3.60;3.25;;;5.30;99.90;;;;;;5137302;27;20035;-77
2022/01/24 09:13:57;;;;;;;1.70;1.58;;;5.20;99.90;;;;;;5137163;27;20478;-78
2022/01/24 09:16:22;;;;;;;0.60;0.60;;;5.30;99.90;;;;;;5119567;27;20100;-80
2022/01/24 09:18:48;;;;;;;2.38;2.17;;;5.30;99.90;;;;;;5119352;27;20043;-78
2022/01/24 09:21:14;;;;;;;3.38;2.95;;;5.30;99.90;;;;;;5118536;27;20067;-77
2022/01/24 09:23:40;;;;;;;0.70;0.70;;;5.30;99.90;;;;;;5137028;27;20039;-77
2022/01/24 09:26:05;;;;;;;1.02;0.73;;;5.40;99.90;;;;;;5137018;27;20050;-78
2022/01/24 09:28:31;;;;;;;0.80;0.80;;;5.40;99.90;;;;;;5118950;27;20088;-78
2022/01/24 09:30:57;;;;;;;2.08;1.92;;;5.30;99.90;;;;;;5118664;27;20138;-77
2022/01/24 09:33:24;;;;;;;0.95;0.93;;;5.30;99.90;;;;;;5136882;27;20039;-78
2022/01/24 09:35:51;;;;;;;0.93;0.93;;;5.60;99.90;;;;;;5118813;27;20130;-77
2022/01/24 09:38:17;;;;;;;1.38;1.30;;;5.30;99.90;;;;;;5136699;27;20148;-77
2022/01/24 09:40:43;;;;;;;0.75;0.75;;;5.40;99.90;;;;;;5136825;27;20036;-78
2022/01/24 09:43:08;;;;;;;2.45;2.25;;;5.40;99.90;;;;;;5136697;27;20046;-77
2022/01/24 09:45:36;;;;;;;0.80;0.80;;;5.40;99.90;;;;;;5136950;27;20043;-78
2022/01/24 09:48:03;;;;;;;1.30;1.25;;;5.40;99.90;;;;;;5136252;27;20039;-77
2022/01/24 09:50:29;;;;;;;4.00;2.25;;;5.40;99.90;;;;;;5136527;27;20047;-78
2022/01/24 09:52:55;;;;;;;0.50;0.50;;;5.40;99.90;;;;;;5136335;27;20479;-77
2022/01/24 09:55:22;;;;;;;2.35;2.15;;;5.40;99.90;;;;;;5136438;27;20091;-77
2022/01/24 09:57:48;;;;;;;0.60;0.60;;;5.50;99.90;;;;;;5136389;27;20501;-77
2022/01/24 10:00:19;;;;;;;2.47;2.28;;;5.40;99.90;;;;;;5136288;27;20039;-77
2022/01/24 10:02:46;;;;;;;4.00;3.22;;;5.40;99.90;;;;;;5136684;27;20453;-77
2022/01/24 10:05:24;;;;;;;0.80;0.80;;;5.40;99.90;;;;;;5136212;27;20050;-76
2022/01/24 10:07:56;;;;;;;1.95;1.08;;;5.50;99.90;;;;;;5136214;27;20047;-77
2022/01/24 10:10:50;;;;;;;1.30;1.20;;;5.50;99.90;;;;;;5136209;27;20043;-77
2022/01/24 10:16:24;;;;;;;0.65;0.65;;;5.50;99.90;;;;;;5135921;27;20047;-77
2022/01/24 10:18:57;;;;;;;1.15;1.05;;;5.60;99.90;;;;;;5135650;27;20467;-77
2022/01/24 10:21:23;;;;;;;1.20;1.10;;;5.60;99.90;;;;;;5135882;27;20043;-77
2022/01/24 10:23:49;;;;;;;0.60;0.60;;;5.60;99.90;;;;;;5135762;27;20039;-78
2022/01/24 10:26:14;;;;;;;0.80;0.80;;;5.70;99.90;;;;;;5135832;27;20072;-78
2022/01/24 10:28:43;;;;;;;0.80;0.73;;;5.60;99.90;;;;;;5135586;27;20039;-77
2022/01/24 10:31:11;;;;;;;2.88;0.85;;;5.60;99.90;;;;;;5135212;27;20054;-77
2022/01/24 10:34:05;;;;;;;1.05;0.95;;;5.60;99.90;;;;;;5135073;27;20046;-77
2022/01/24 10:36:46;;;;;;;0.60;0.60;;;5.60;99.90;;;;;;5125696;27;20065;-77
2022/01/24 10:39:16;;;;;;;1.15;1.02;;;5.60;99.90;;;;;;5135419;27;20134;-76
2022/01/24 10:44:34;;;;;;;1.65;1.55;;;5.60;99.90;;;;;;5135465;27;20544;-76
2022/01/24 10:47:17;;;;;;;0.60;0.60;;;5.70;99.90;;;;;;5135379;27;20075;-76
2022/01/24 10:49:45;;;;;;;0.73;0.73;;;5.60;99.90;;;;;;5135618;27;20043;-77
2022/01/24 10:52:14;;;;;;;4.40;3.35;;;5.60;99.90;;;;;;5135311;27;20039;-77
2022/01/24 10:54:39;;;;;;;1.38;1.27;;;5.70;99.90;;;;;;5132347;27;20043;-78
2022/01/24 10:57:05;;;;;;;0.98;0.98;;;5.60;99.90;;;;;;5111640;28;20059;-77
2022/01/24 10:59:34;;;;;;;1.23;1.20;;;5.70;99.90;;;;;;5114355;28;20120;-77
2022/01/24 11:02:03;;;;;;;0.57;0.57;;;5.60;99.90;;;;;;5114152;28;20043;-78
2022/01/24 11:04:29;;;;;;;1.38;1.30;;;5.70;99.90;;;;;;5096455;28;20047;-78
2022/01/24 11:06:57;;;;;;;1.02;1.02;;;5.60;99.90;;;;;;5114025;28;20047;-78
2022/01/24 11:09:25;;;;;;;2.85;2.65;;;5.60;99.90;;;;;;5097717;28;20116;-76
2022/01/24 11:11:55;;;;;;;1.50;1.08;;;5.60;99.90;;;;;;5101336;28;20400;-77
2022/01/24 11:14:21;;;;;;;1.35;1.25;;;5.60;99.90;;;;;;5079404;28;20436;-79
2022/01/24 11:16:49;;;;;;;2.60;0.77;;;5.70;99.90;;;;;;5095608;28;20058;-77
2022/01/24 11:19:21;;;;;;;0.82;0.82;;;5.60;99.90;;;;;;5114208;28;20052;-78
2022/01/24 11:21:48;;;;;;;2.38;1.50;;;5.60;99.90;;;;;;5114021;28;20119;-75
2022/01/24 11:24:21;;;;;;;1.70;1.60;;;5.60;99.90;;;;;;5114101;28;20047;-77
2022/01/24 11:26:50;;;;;;;1.27;1.17;;;5.60;99.90;;;;;;5115891;28;20277;-76
2022/01/24 11:29:18;;;;;;;0.75;0.75;;;5.60;99.90;;;;;;5115108;28;20403;-78
2022/01/24 11:31:50;;;;;;;1.23;1.17;;;5.60;99.90;;;;;;5113975;28;20044;-78
2022/01/24 11:34:32;;;;;;;0.90;0.88;;;5.60;99.90;;;;;;5113976;28;20079;-77
2022/01/24 11:36:58;;;;;;;1.38;1.02;;;5.60;99.90;;;;;;5113891;28;20451;-80
2022/01/24 11:39:24;;;;;;;1.30;0.80;;;5.60;99.90;;;;;;5095600;28;20039;-78
2022/01/24 11:41:50;;;;;;;1.23;1.13;;;5.60;99.90;;;;;;5113552;28;20046;-78
2022/01/24 11:44:18;;;;;;;1.05;1.05;;;5.60;99.90;;;;;;5115275;28;20051;-78
2022/01/24 11:46:56;;;;;;;0.80;0.80;;;5.60;99.90;;;;;;5118443;28;20051;-78
2022/01/24 11:49:27;;;;;;;;;;;5.50;99.90;;;;;;5118152;28;20114;-78
2022/01/24 11:52:14;;;;;;;0.70;0.70;;;5.60;99.90;;;;;;5117790;28;20362;-77
2022/01/24 11:57:38;;;;;;;0.50;0.50;;;5.60;99.90;;;;;;5094213;28;20058;-78
2022/01/24 12:00:07;;;;;;;4.57;1.70;;;5.60;99.90;;;;;;5117824;28;20140;-78
2022/01/24 12:02:43;;;;;;;5.25;2.45;;;5.60;99.90;;;;;;5117758;28;20062;-78
2022/01/24 12:05:18;;;;;;;0.90;0.82;;;5.60;99.90;;;;;;5117362;28;20571;-78
2022/01/24 12:07:55;;;;;;;1.40;1.30;;;5.50;99.90;;;;;;5117855;28;20055;-79
2022/01/24 12:10:34;;;;;;;2.25;1.85;;;5.60;99.90;;;;;;5117578;28;20536;-79
2022/01/24 12:13:09;;;;;;;2.30;1.83;;;5.50;99.90;;;;;;5117704;28;20052;-78
2022/01/24 12:15:38;;;;;;;1.10;0.88;;;5.50;99.90;;;;;;5117601;28;20052;-78
2022/01/24 12:18:12;;;;;;;1.80;1.70;;;5.50;99.90;;;;;;5117432;28;20046;-77
2022/01/24 12:20:37;;;;;;;1.35;1.25;;;5.50;99.90;;;;;;5117407;28;20061;-79
2022/01/24 12:23:24;;;;;;;0.98;0.88;;;5.50;99.90;;;;;;5117187;28;20044;-78
2022/01/24 12:26:05;;;;;;;1.17;1.15;;;5.40;99.90;;;;;;5117378;28;20051;-78
2022/01/24 12:28:32;;;;;;;1.27;1.17;;;5.50;99.90;;;;;;5117266;28;20039;-79
2022/01/24 12:31:25;;;;;;;0.63;0.63;;;5.50;99.90;;;;;;5082232;28;20514;-78
2022/01/24 12:33:54;;;;;;;1.23;1.15;;;5.50;99.90;;;;;;5117146;28;20044;-78
2022/01/24 12:36:47;;;;;;;6.00;1.73;;;5.60;99.90;;;;;;5117048;28;20191;-78
2022/01/24 12:39:27;;;;;;;0.70;0.70;;;5.50;99.90;;;;;;5117139;28;20052;-76
2022/01/24 12:41:59;;;;;;;5.22;2.97;;;5.50;99.90;;;;;;5116652;28;20044;-77
2022/01/24 12:47:09;;;;;;;2.88;2.67;;;5.50;99.90;;;;;;5117143;28;20129;-78
2022/01/24 12:49:35;;;;;;;2.15;1.77;;;5.50;99.90;;;;;;5116492;28;20113;-77
2022/01/24 12:52:12;;;;;;;1.92;1.75;;;5.50;99.90;;;;;;5098670;28;20086;-77
2022/01/24 12:54:50;;;;;;;1.25;1.15;;;5.50;99.90;;;;;;5116269;28;20046;-77
2022/01/24 12:57:18;;;;;;;0.65;0.65;;;5.50;99.90;;;;;;5117029;28;20073;-76
2022/01/24 13:00:06;;;;;;;2.38;2.05;;;5.50;99.90;;;;;;5116552;28;20040;-76
2022/01/24 13:02:34;;;;;;;0.73;0.70;;;5.50;99.90;;;;;;5116709;28;20131;-77
2022/01/24 13:05:09;;;;;;;;;;;5.60;99.90;;;;;;5116881;28;20043;-79
2022/01/24 13:07:37;;;;;;;1.30;1.13;;;5.60;99.90;;;;;;5116730;28;19931;-81
2022/01/24 13:10:05;;;;;;;1.00;1.00;;;5.60;99.90;;;;;;5116712;28;20032;-78
2022/01/24 13:12:31;;;;;;;0.65;0.65;;;5.50;99.90;;;;;;5116978;28;20550;-78
2022/01/24 13:15:00;;;;;;;1.48;1.38;;;5.50;99.90;;;;;;5116743;28;20078;-83
2022/01/24 13:23:00;;;;;;;1.13;1.02;;;5.50;99.90;;;;;;5116118;28;20487;-78
2022/01/24 13:25:30;;;;;;;12.80;3.78;;;5.50;99.90;;;;;;5116421;28;20549;-78
2022/01/24 13:28:01;;;;;;;2.70;2.53;;;5.50;99.90;;;;;;5116456;28;20043;-78
2022/01/24 13:30:31;;;;;;;7.30;3.60;;;5.50;99.90;;;;;;5116323;28;20096;-78
2022/01/24 13:33:05;;;;;;;0.70;0.70;;;5.40;99.90;;;;;;5116793;28;20048;-77
2022/01/24 13:35:37;;;;;;;0.70;0.70;;;5.50;99.90;;;;;;5116191;28;20035;-77
2022/01/24 13:38:06;;;;;;;0.95;0.95;;;5.50;99.90;;;;;;5116534;28;20123;-78
2022/01/24 13:43:34;;;;;;;;;;;5.50;99.90;;;;;;5116588;28;20094;-78
2022/01/24 13:46:03;;;;;;;0.80;0.80;;;5.50;99.90;;;;;;5116121;28;20333;-78
2022/01/24 13:48:28;;;;;;;1.25;1.15;;;5.50;99.90;;;;;;5116041;28;20062;-78
2022/01/24 13:50:58;;;;;;;0.60;0.60;;;5.40;99.90;;;;;;5097927;28;20138;-77
2022/01/24 13:53:32;;;;;;;5.63;1.92;;;5.40;99.90;;;;;;5097922;28;20053;-78
2022/01/24 13:55:58;;;;;;;0.50;0.50;;;5.40;99.90;;;;;;5115468;28;20373;-79
2022/01/24 13:58:27;;;;;;;0.98;0.98;;;5.30;99.90;;;;;;5115779;28;20043;-82
2022/01/24 14:01:00;;;;;;;1.10;1.10;;;5.30;99.90;;;;;;5127358;27;20035;-81
2022/01/24 14:03:27;;;;;;;0.80;0.80;;;5.40;99.90;;;;;;5135149;27;20075;-76
2022/01/24 14:06:15;;;;;;;1.60;1.50;;;5.30;99.90;;;;;;5116320;27;20043;-76
2022/01/24 14:08:42;;;;;;;0.80;0.80;;;5.30;99.90;;;;;;5135454;27;20069;-76
2022/01/24 14:11:14;;;;;;;0.55;0.55;;;5.30;99.90;;;;;;5135003;27;20039;-77
2022/01/24 14:13:46;;;;;;;1.58;0.85;;;5.40;99.90;;;;;;5134572;27;20096;-77
2022/01/24 14:16:32;;;;;;;0.68;0.68;;;5.30;99.90;;;;;;5131985;27;20101;-78
2022/01/24 14:19:03;;;;;;;0.85;0.85;;;5.30;99.90;;;;;;5116244;27;20039;-77
2022/01/24 14:21:28;;;;;;;0.55;0.55;;;5.30;99.90;;;;;;5135240;27;20031;-76
2022/01/24 14:23:55;;;;;;;0.50;0.50;;;5.30;99.90;;;;;;5135035;27;20074;-77
2022/01/24 14:26:24;;;;;;;1.17;1.15;;;5.30;99.90;;;;;;5134926;27;20043;-74
2022/01/24 14:29:27;;;;;;;0.60;0.60;;;5.30;99.90;;;;;;5134682;27;20076;-76
2022/01/24 14:31:59;;;;;;;0.60;0.60;;;5.30;99.90;;;;;;5093007;27;20051;-76
2022/01/24 14:34:28;;;;;;;1.40;0.98;;;5.30;99.90;;;;;;5117615;27;20483;-76
2022/01/24 14:36:56;;;;;;;0.50;0.50;;;5.30;99.90;;;;;;5135527;27;20399;-76
2022/01/24 14:39:23;;;;;;;0.60;0.60;;;5.30;99.90;;;;;;5135471;27;20090;-76
2022/01/24 14:41:49;;;;;;;0.50;0.50;;;5.30;99.90;;;;;;5135339;27;20035;-75
2022/01/24 14:47:02;;;;;;;0.50;0.50;;;5.30;99.90;;;;;;5135514;27;20043;-75
2022/01/24 14:49:32;;;;;;;1.20;1.10;;;5.30;99.90;;;;;;5135654;27;20143;-76
2022/01/24 14:52:03;;;;;;;0.50;0.50;;;5.30;99.90;;;;;;5135242;27;20474;-77
2022/01/24 14:54:31;;;;;;;2.58;2.15;;;5.30;99.90;;;;;;5135739;27;20126;-76
2022/01/24 14:56:58;;;;;;;0.88;0.88;;;5.20;99.90;;;;;;5135248;27;20126;-77
2022/01/24 14:59:25;;;;;;;0.52;0.52;;;5.20;99.90;;;;;;5135211;27;20047;-76
2022/01/24 15:01:52;;;;;;;0.70;0.70;;;5.20;99.90;;;;;;5135134;27;20084;-77
2022/01/24 15:04:18;;;;;;;1.40;1.30;;;5.20;99.90;;;;;;5135050;27;20051;-76
2022/01/24 15:06:45;;;;;;;0.93;0.60;;;5.10;99.90;;;;;;5135086;27;20035;-76